createdAt,value
2019-02-15T00:00:49.328Z,24.73
2019-02-15T00:03:18.827Z,24.00
2019-02-15T00:05:48.603Z,25.87
2019-02-15T00:08:18.116Z,20.93
2019-02-15T00:10:47.635Z,20.37
2019-02-15T00:13:17.214Z,23.40
2019-02-15T00:15:46.743Z,18.83
2019-02-15T00:18:25.494Z,21.57
2019-02-15T00:21:06.699Z,22.07
2019-02-15T00:23:36.293Z,25.70
2019-02-15T00:26:05.895Z,24.37
2019-02-15T00:28:35.380Z,23.27
2019-02-15T00:31:05.773Z,22.53
2019-02-15T00:33:35.342Z,24.97
2019-02-15T00:36:04.942Z,22.50
2019-02-15T00:38:34.459Z,20.07
2019-02-15T00:41:04.010Z,20.00
2019-02-15T00:43:33.602Z,19.07
2019-02-15T00:46:17.842Z,18.33
2019-02-15T00:48:47.393Z,20.40
2019-02-15T00:51:35.912Z,21.47
2019-02-15T00:54:12.196Z,19.57
2019-02-15T00:56:59.358Z,21.60
2019-02-15T00:59:36.031Z,18.23
2019-02-15T01:02:21.888Z,21.83
2019-02-15T01:05:00.076Z,20.83
2019-02-15T01:08:03.728Z,19.33
2019-02-15T01:11:01.352Z,18.60
2019-02-15T01:13:31.412Z,18.33
2019-02-15T01:16:00.916Z,17.93
2019-02-15T01:18:30.469Z,18.33
2019-02-15T01:20:59.959Z,14.90
2019-02-15T01:23:29.449Z,20.40
2019-02-15T01:26:16.920Z,17.97
2019-02-15T01:28:58.737Z,16.27
2019-02-15T01:31:37.039Z,22.40
2019-02-15T01:34:27.898Z,19.53
2019-02-15T01:37:28.265Z,20.13
2019-02-15T01:40:15.243Z,17.87
2019-02-15T01:43:00.856Z,18.03
2019-02-15T01:45:36.666Z,18.57
2019-02-15T01:48:06.169Z,18.00
2019-02-15T01:50:35.639Z,19.43
2019-02-15T01:53:05.136Z,19.13
2019-02-15T01:55:34.627Z,18.20
2019-02-15T01:58:04.107Z,27.23
2019-02-15T02:00:34.550Z,17.83
2019-02-15T02:03:04.118Z,19.50
2019-02-15T02:05:33.616Z,21.50
2019-02-15T02:08:03.961Z,17.00
2019-02-15T02:10:33.508Z,19.63
2019-02-15T02:13:03.098Z,18.33
2019-02-15T02:15:32.655Z,31.27
2019-02-15T02:18:02.140Z,21.77
2019-02-15T02:20:31.637Z,17.00
2019-02-15T02:23:01.919Z,17.00
2019-02-15T02:25:31.440Z,18.67
2019-02-15T02:28:00.943Z,21.07
2019-02-15T02:30:30.507Z,19.13
2019-02-15T02:33:00.059Z,18.57
2019-02-15T02:35:29.580Z,15.40
2019-02-15T02:37:59.098Z,20.13
2019-02-15T02:40:28.657Z,17.33
2019-02-15T02:42:58.157Z,17.87
2019-02-15T02:45:27.754Z,16.67
2019-02-15T02:47:57.270Z,17.83
2019-02-15T02:50:26.747Z,15.20
2019-02-15T02:52:56.219Z,16.77
2019-02-15T02:55:25.715Z,18.30
2019-02-15T02:58:01.379Z,17.23
2019-02-15T03:00:33.632Z,18.37
2019-02-15T03:03:02.355Z,16.90
2019-02-15T03:05:31.937Z,22.80
2019-02-15T03:08:01.485Z,20.87
2019-02-15T03:10:31.050Z,18.20
2019-02-15T03:13:00.563Z,15.90
2019-02-15T03:15:30.094Z,16.83
2019-02-15T03:17:59.638Z,16.90
2019-02-15T03:20:31.579Z,22.23
2019-02-15T03:23:00.548Z,16.47
2019-02-15T03:25:30.115Z,18.93
2019-02-15T03:27:59.634Z,17.07
2019-02-15T03:30:29.266Z,16.40
2019-02-15T03:32:58.770Z,18.90
2019-02-15T03:35:28.311Z,18.47
2019-02-15T03:38:12.275Z,17.03
2019-02-15T03:40:44.501Z,16.37
2019-02-15T03:43:14.086Z,18.67
2019-02-15T03:45:44.630Z,17.77
2019-02-15T03:48:14.414Z,17.57
2019-02-15T03:50:43.918Z,18.50
2019-02-15T03:53:13.407Z,15.47
2019-02-15T03:55:43.001Z,20.00
2019-02-15T03:58:12.569Z,16.57
2019-02-15T04:00:42.157Z,15.23
2019-02-15T04:03:11.810Z,17.80
2019-02-15T04:05:41.612Z,14.67
2019-02-15T04:08:11.239Z,15.23
2019-02-15T04:10:40.893Z,15.87
2019-02-15T04:13:11.411Z,20.43
2019-02-15T04:15:41.040Z,17.70
2019-02-15T04:18:10.624Z,19.37
2019-02-15T04:20:40.177Z,21.53
2019-02-15T04:23:09.708Z,19.97
2019-02-15T04:25:39.307Z,21.27
2019-02-15T04:28:08.895Z,22.40
2019-02-15T04:30:38.536Z,26.37
2019-02-15T04:33:08.037Z,22.40
2019-02-15T04:35:37.570Z,21.30
2019-02-15T04:38:07.095Z,21.27
2019-02-15T04:40:36.639Z,20.87
2019-02-15T04:43:06.261Z,22.20
2019-02-15T04:45:35.770Z,22.20
2019-02-15T04:48:05.298Z,22.10
2019-02-15T04:50:34.914Z,26.73
2019-02-15T04:53:04.427Z,22.20
2019-02-15T04:55:34.038Z,24.20
2019-02-15T04:58:03.537Z,24.83
2019-02-15T05:00:33.064Z,25.03
2019-02-15T05:03:02.663Z,26.07
2019-02-15T05:05:32.273Z,18.97
2019-02-15T05:08:01.821Z,26.03
2019-02-15T05:10:31.356Z,22.07
2019-02-15T05:13:00.875Z,22.47
2019-02-15T05:15:30.563Z,20.33
2019-02-15T05:18:00.233Z,21.87
2019-02-15T05:20:29.746Z,19.43
2019-02-15T05:22:59.249Z,19.03
2019-02-15T05:25:28.822Z,22.43
2019-02-15T05:27:58.400Z,23.80
2019-02-15T05:30:27.968Z,22.50
2019-02-15T05:32:57.567Z,20.97
2019-02-15T05:35:27.200Z,22.20
2019-02-15T05:37:56.761Z,22.87
2019-02-15T05:40:26.400Z,24.87
2019-02-15T05:42:55.929Z,21.73
2019-02-15T05:45:25.578Z,22.83
2019-02-15T05:47:55.118Z,20.53
2019-02-15T05:50:24.743Z,21.47
2019-02-15T05:52:54.279Z,25.70
2019-02-15T05:55:23.898Z,25.27
2019-02-15T05:57:53.444Z,23.53
2019-02-15T06:00:23.104Z,21.80
2019-02-15T06:02:52.740Z,23.63
2019-02-15T06:05:22.280Z,30.37
2019-02-15T06:07:51.859Z,26.67
2019-02-15T06:10:21.496Z,29.70
2019-02-15T06:12:51.112Z,28.40
2019-02-15T06:15:20.710Z,29.77
2019-02-15T06:17:50.303Z,30.70
2019-02-15T06:20:19.846Z,27.93
2019-02-15T06:22:49.418Z,30.27
2019-02-15T06:25:19.121Z,29.37
2019-02-15T06:27:48.680Z,28.57
2019-02-15T06:30:18.315Z,31.27
2019-02-15T06:32:48.058Z,29.20
2019-02-15T06:35:17.580Z,29.33
2019-02-15T06:37:47.198Z,29.00
2019-02-15T06:40:16.950Z,32.63
2019-02-15T06:42:46.502Z,35.23
2019-02-15T06:45:24.277Z,31.57
2019-02-15T06:47:47.359Z,37.03
2019-02-15T06:50:16.969Z,42.07
2019-02-15T06:52:46.621Z,38.00
2019-02-15T06:55:16.190Z,42.07
2019-02-15T06:57:45.834Z,35.53
2019-02-15T07:00:33.171Z,34.10
2019-02-15T07:03:16.728Z,32.03
2019-02-15T07:05:46.346Z,34.37
2019-02-15T07:08:16.079Z,32.87
2019-02-15T07:10:45.688Z,31.60
2019-02-15T07:13:15.251Z,38.70
2019-02-15T07:15:44.933Z,33.03
2019-02-15T07:18:14.587Z,32.60
2019-02-15T07:20:44.203Z,37.70
2019-02-15T07:23:13.794Z,38.13
2019-02-15T07:25:43.430Z,34.67
2019-02-15T07:28:13.051Z,32.23
2019-02-15T07:30:42.576Z,37.83
2019-02-15T07:33:12.248Z,35.20
2019-02-15T07:35:41.923Z,32.10
2019-02-15T07:38:11.609Z,34.37
2019-02-15T07:40:41.162Z,39.83
2019-02-15T07:43:10.852Z,33.90
2019-02-15T07:45:42.841Z,33.93
2019-02-15T07:48:11.830Z,35.00
2019-02-15T07:50:41.699Z,32.97
2019-02-15T07:53:11.394Z,33.33
2019-02-15T07:55:41.060Z,34.47
2019-02-15T07:58:10.694Z,33.10
2019-02-15T08:00:40.317Z,37.60
2019-02-15T08:03:38.136Z,34.37
2019-02-15T08:05:55.485Z,31.30
2019-02-15T08:08:25.058Z,32.73
2019-02-15T08:10:54.594Z,29.73
2019-02-15T08:13:31.280Z,31.40
2019-02-15T08:16:02.806Z,29.67
2019-02-15T08:18:32.171Z,26.93
2019-02-15T08:21:01.753Z,31.33
2019-02-15T08:23:31.311Z,30.10
2019-02-15T08:26:00.909Z,29.07
2019-02-15T08:28:30.414Z,26.70
2019-02-15T08:30:59.953Z,25.87
2019-02-15T08:33:29.520Z,25.20
2019-02-15T08:35:59.100Z,26.87
2019-02-15T08:38:28.693Z,26.00
2019-02-15T08:40:58.275Z,25.47
2019-02-15T08:43:27.966Z,24.73
2019-02-15T08:46:01.556Z,25.47
2019-02-15T08:48:28.796Z,27.73
2019-02-15T08:51:00.956Z,28.40
2019-02-15T08:53:30.649Z,28.23
2019-02-15T08:56:00.569Z,27.27
2019-02-15T08:58:30.212Z,28.90
2019-02-15T09:01:00.245Z,29.50
2019-02-15T09:03:29.864Z,27.40
2019-02-15T09:05:59.505Z,25.97
2019-02-15T09:08:30.056Z,27.47
2019-02-15T09:10:59.779Z,29.77
2019-02-15T09:13:30.234Z,28.00
2019-02-15T09:15:59.746Z,30.70
2019-02-15T09:18:29.253Z,28.93
2019-02-15T09:20:58.848Z,27.30
2019-02-15T09:23:28.530Z,28.10
2019-02-15T09:25:58.239Z,25.73
2019-02-15T09:28:35.861Z,28.30
2019-02-15T09:31:05.404Z,29.53
2019-02-15T09:33:35.009Z,28.20
2019-02-15T09:36:04.537Z,29.70
2019-02-15T09:38:34.181Z,25.40
2019-02-15T09:41:03.809Z,27.40
2019-02-15T09:43:33.347Z,28.47
2019-02-15T09:46:02.841Z,28.70
2019-02-15T09:48:32.425Z,32.43
2019-02-15T09:51:01.979Z,30.03
2019-02-15T09:53:31.522Z,28.30
2019-02-15T09:56:01.139Z,30.37
2019-02-15T09:58:30.628Z,27.57
2019-02-15T10:01:20.268Z,31.50
2019-02-15T10:07:19.579Z,26.97
2019-02-15T10:09:49.206Z,27.40
2019-02-15T10:12:18.749Z,25.93
2019-02-15T10:14:48.372Z,26.47
2019-02-15T10:17:17.951Z,28.50
2019-02-15T10:19:47.463Z,29.40
2019-02-15T10:22:16.984Z,27.67
2019-02-15T10:24:46.491Z,29.27
2019-02-15T10:27:16.078Z,29.27
2019-02-15T10:29:45.598Z,28.83
2019-02-15T10:32:15.131Z,28.80
2019-02-15T10:34:44.729Z,26.43
2019-02-15T10:37:14.336Z,25.50
2019-02-15T10:39:43.982Z,26.57
2019-02-15T10:42:13.707Z,24.93
2019-02-15T10:44:43.297Z,26.40
2019-02-15T10:47:15.749Z,29.57
2019-02-15T10:49:44.097Z,24.17
2019-02-15T10:52:15.913Z,28.57
2019-02-15T10:54:45.491Z,23.47
2019-02-15T10:57:15.025Z,29.97
2019-02-15T10:59:44.546Z,29.83
2019-02-15T11:02:14.129Z,24.60
2019-02-15T11:04:43.705Z,25.43
2019-02-15T11:07:13.373Z,22.43
2019-02-15T11:09:42.874Z,29.70
2019-02-15T11:12:12.420Z,25.53
2019-02-15T11:14:41.994Z,25.73
2019-02-15T11:17:11.488Z,28.30
2019-02-15T11:19:41.012Z,26.33
2019-02-15T11:22:10.614Z,28.83
2019-02-15T11:24:40.169Z,26.77
2019-02-15T11:27:09.653Z,28.40
2019-02-15T11:29:39.267Z,30.70
2019-02-15T11:32:08.933Z,35.47
2019-02-15T11:34:38.509Z,30.37
2019-02-15T11:37:08.051Z,28.70
2019-02-15T11:39:37.561Z,25.70
2019-02-15T11:42:07.187Z,26.80
2019-02-15T11:44:36.692Z,26.70
2019-02-15T11:47:06.331Z,24.63
2019-02-15T11:49:35.958Z,21.37
2019-02-15T11:52:05.496Z,19.27
2019-02-15T11:54:35.045Z,20.50
2019-02-15T11:57:04.573Z,23.43
2019-02-15T11:59:34.245Z,22.63
2019-02-15T12:02:06.503Z,21.20
2019-02-15T12:04:35.256Z,22.77
2019-02-15T12:07:04.881Z,23.60
2019-02-15T12:09:34.430Z,26.00
2019-02-15T12:12:10.385Z,21.77
2019-02-15T12:14:35.365Z,27.07
2019-02-15T12:17:06.094Z,22.70
2019-02-15T12:19:35.600Z,19.97
2019-02-15T12:22:05.243Z,23.33
2019-02-15T12:24:34.934Z,20.37
2019-02-15T12:27:04.970Z,22.30
2019-02-15T12:29:34.471Z,22.33
2019-02-15T12:32:04.004Z,23.87
2019-02-15T12:34:33.535Z,23.50
2019-02-15T12:37:03.054Z,21.67
2019-02-15T12:39:32.648Z,20.10
2019-02-15T12:42:02.305Z,21.90
2019-02-15T12:44:31.903Z,19.53
2019-02-15T12:47:01.729Z,21.63
2019-02-15T12:49:31.321Z,22.50
2019-02-15T12:52:00.827Z,25.30
2019-02-15T12:54:30.407Z,22.27
2019-02-15T12:56:59.917Z,22.03
2019-02-15T12:59:29.481Z,22.20
2019-02-15T13:01:59.092Z,23.10
2019-02-15T13:04:28.603Z,25.60
2019-02-15T13:06:58.221Z,21.67
2019-02-15T13:09:27.814Z,23.00
2019-02-15T13:11:57.649Z,23.07
2019-02-15T13:14:27.200Z,27.43
2019-02-15T13:16:56.947Z,39.03
2019-02-15T13:19:26.470Z,27.83
2019-02-15T13:21:56.083Z,22.00
2019-02-15T13:24:25.725Z,21.40
2019-02-15T13:26:55.391Z,21.10
2019-02-15T13:29:25.007Z,24.43
2019-02-15T13:31:54.692Z,24.50
2019-02-15T13:34:24.301Z,22.70
2019-02-15T13:36:53.850Z,20.70
2019-02-15T13:39:23.508Z,20.87
2019-02-15T13:41:53.239Z,21.90
2019-02-15T13:44:22.767Z,26.20
2019-02-15T13:46:52.512Z,20.83
2019-02-15T13:49:22.062Z,20.87
2019-02-15T13:51:51.655Z,26.90
2019-02-15T13:54:21.332Z,20.47
2019-02-15T13:56:50.877Z,22.93
2019-02-15T13:59:20.515Z,18.53
2019-02-15T14:01:50.142Z,29.90
2019-02-15T14:04:19.661Z,40.90
2019-02-15T14:06:56.057Z,32.07
2019-02-15T14:09:25.898Z,24.33
2019-02-15T14:11:55.545Z,26.63
2019-02-15T14:14:25.125Z,23.17
2019-02-15T14:16:54.710Z,27.83
2019-02-15T14:19:24.405Z,21.07
2019-02-15T14:21:53.915Z,25.50
2019-02-15T14:24:23.536Z,19.47
2019-02-15T14:26:53.152Z,21.20
2019-02-15T14:29:22.810Z,20.17
2019-02-15T14:31:52.426Z,19.47
2019-02-15T14:34:21.950Z,16.87
2019-02-15T14:36:51.670Z,17.83
2019-02-15T14:39:21.226Z,18.57
2019-02-15T14:41:50.775Z,20.93
2019-02-15T14:44:20.406Z,19.30
2019-02-15T14:46:50.016Z,19.53
2019-02-15T14:49:19.580Z,16.87
2019-02-15T14:51:49.213Z,16.80
2019-02-15T14:54:18.830Z,21.30
2019-02-15T14:56:48.478Z,20.07
2019-02-15T14:59:18.137Z,19.57
2019-02-15T15:01:47.743Z,19.27
2019-02-15T15:04:17.394Z,17.93
2019-02-15T15:06:47.142Z,15.03
2019-02-15T15:09:16.708Z,20.57
2019-02-15T15:11:46.309Z,21.63
2019-02-15T15:14:15.927Z,19.40
2019-02-15T15:16:45.513Z,19.97
2019-02-15T15:19:15.048Z,17.97
2019-02-15T15:21:44.691Z,22.90
2019-02-15T15:24:14.317Z,16.83
2019-02-15T15:26:43.865Z,18.93
2019-02-15T15:29:13.443Z,19.00
2019-02-15T15:31:43.104Z,16.07
2019-02-15T15:34:12.802Z,16.93
2019-02-15T15:36:43.032Z,15.67
2019-02-15T15:39:12.713Z,20.70
2019-02-15T15:41:42.311Z,19.97
2019-02-15T15:44:11.905Z,25.37
2019-02-15T15:46:41.497Z,20.03
2019-02-15T15:49:11.097Z,26.20
2019-02-15T15:51:40.674Z,21.57
2019-02-15T15:54:10.241Z,21.50
2019-02-15T15:56:39.852Z,24.60
2019-02-15T15:59:09.480Z,20.40
2019-02-15T16:01:39.184Z,20.60
2019-02-15T16:04:08.799Z,20.67
2019-02-15T16:06:38.357Z,18.20
2019-02-15T16:09:08.298Z,21.33
2019-02-15T16:11:38.047Z,21.07
2019-02-15T16:14:07.683Z,22.83
2019-02-15T16:16:37.237Z,24.83
2019-02-15T16:19:06.876Z,23.50
2019-02-15T16:21:36.416Z,23.53
2019-02-15T16:24:12.302Z,23.50
2019-02-15T16:26:37.225Z,22.63
2019-02-15T16:29:06.819Z,20.80
2019-02-15T16:31:36.416Z,25.03
2019-02-15T16:34:06.002Z,25.03
2019-02-15T16:36:35.582Z,26.13
2019-02-15T16:39:05.855Z,25.13
2019-02-15T16:41:35.403Z,27.17
2019-02-15T16:44:04.903Z,25.00
2019-02-15T16:46:34.436Z,24.50
2019-02-15T16:49:03.950Z,25.97
2019-02-15T16:51:33.552Z,28.20
2019-02-15T16:54:03.178Z,28.10
2019-02-15T16:56:32.774Z,22.83
2019-02-15T16:59:02.367Z,26.43
2019-02-15T17:01:31.852Z,26.60
2019-02-15T17:04:01.376Z,23.33
2019-02-15T17:06:30.979Z,23.67
2019-02-15T17:09:00.497Z,23.30
2019-02-15T17:11:30.030Z,23.20
2019-02-15T17:13:59.574Z,23.70
2019-02-15T17:16:29.202Z,24.83
2019-02-15T17:18:58.724Z,25.90
2019-02-15T17:21:28.280Z,29.50
2019-02-15T17:23:57.889Z,30.90
2019-02-15T17:26:27.610Z,28.10
2019-02-15T17:28:57.149Z,28.43
2019-02-15T17:31:26.693Z,24.07
2019-02-15T17:33:56.268Z,24.63
2019-02-15T17:36:25.901Z,21.87
2019-02-15T17:38:55.591Z,23.93
2019-02-15T17:41:25.136Z,22.83
2019-02-15T17:43:54.685Z,26.70
2019-02-15T17:46:24.301Z,21.73
2019-02-15T17:49:00.487Z,22.03
2019-02-15T17:51:25.266Z,23.33
2019-02-15T17:53:54.833Z,20.77
2019-02-15T17:56:24.479Z,24.10
2019-02-15T17:58:54.066Z,22.77
2019-02-15T18:01:23.600Z,23.27
2019-02-15T18:03:53.150Z,26.97
2019-02-15T18:06:22.728Z,24.57
2019-02-15T18:08:52.336Z,23.87
2019-02-15T18:11:21.898Z,23.53
2019-02-15T18:13:51.482Z,21.17
2019-02-15T18:16:21.186Z,23.20
2019-02-15T18:18:50.732Z,26.07
2019-02-15T18:21:20.480Z,23.43
2019-02-15T18:23:50.028Z,30.57
2019-02-15T18:26:19.853Z,22.83
2019-02-15T18:28:49.490Z,24.83
2019-02-15T18:31:19.059Z,27.27
2019-02-15T18:33:48.612Z,24.47
2019-02-15T18:36:18.188Z,27.33
2019-02-15T18:38:48.124Z,28.97
2019-02-15T18:41:17.816Z,33.17
2019-02-15T18:43:47.435Z,30.30
2019-02-15T18:46:17.056Z,29.00
2019-02-15T18:48:46.742Z,24.27
2019-02-15T18:51:16.397Z,24.93
2019-02-15T18:53:45.986Z,24.70
2019-02-15T18:56:15.680Z,24.27
2019-02-15T18:58:47.093Z,26.60
2019-02-15T19:01:16.836Z,27.53
2019-02-15T19:03:46.545Z,26.07
2019-02-15T19:06:16.232Z,30.63
2019-02-15T19:08:45.911Z,28.53
2019-02-15T19:11:15.473Z,31.33
2019-02-15T19:13:45.122Z,33.63
2019-02-15T19:16:14.783Z,33.97
2019-02-15T19:18:44.480Z,36.67
2019-02-15T19:21:14.095Z,32.90
2019-02-15T19:23:43.640Z,35.80
2019-02-15T19:26:13.247Z,30.87
2019-02-15T19:28:42.776Z,30.53
2019-02-15T19:31:12.345Z,35.63
2019-02-15T19:33:41.961Z,39.23
2019-02-15T19:36:11.565Z,37.03
2019-02-15T19:38:41.543Z,38.40
2019-02-15T19:41:11.177Z,34.63
2019-02-15T19:43:40.689Z,32.03
2019-02-15T19:46:10.273Z,30.50
2019-02-15T19:48:39.812Z,32.60
2019-02-15T19:51:09.333Z,36.03
2019-02-15T19:53:38.946Z,34.90
2019-02-15T19:56:08.558Z,35.10
2019-02-15T19:58:38.175Z,33.77
2019-02-15T20:01:07.761Z,32.77
2019-02-15T20:03:37.323Z,34.23
2019-02-15T20:06:06.951Z,32.60
2019-02-15T20:08:36.595Z,30.13
2019-02-15T20:11:06.147Z,31.23
2019-02-15T20:13:35.715Z,34.30
2019-02-15T20:16:05.359Z,34.93
2019-02-15T20:18:34.902Z,31.73
2019-02-15T20:21:04.426Z,33.47
2019-02-15T20:23:34.149Z,31.20
2019-02-15T20:26:03.764Z,34.40
2019-02-15T20:28:33.597Z,34.43
2019-02-15T20:31:03.109Z,33.33
2019-02-15T20:33:33.039Z,38.20
2019-02-15T20:36:02.663Z,35.50
2019-02-15T20:38:32.190Z,32.30
2019-02-15T20:41:01.706Z,31.63
2019-02-15T20:43:31.284Z,32.20
2019-02-15T20:46:00.882Z,31.47
2019-02-15T20:48:30.733Z,31.90
2019-02-15T20:51:00.358Z,33.57
2019-02-15T20:53:30.002Z,31.87
2019-02-15T20:55:59.633Z,31.60
2019-02-15T20:58:29.247Z,33.33
2019-02-15T21:00:58.866Z,33.37
2019-02-15T21:03:28.406Z,36.07
2019-02-15T21:05:58.040Z,31.50
2019-02-15T21:08:27.588Z,33.33
2019-02-15T21:10:57.348Z,33.50
2019-02-15T21:13:26.931Z,36.17
2019-02-15T21:15:56.733Z,33.47
2019-02-15T21:18:26.307Z,34.07
2019-02-15T21:20:56.256Z,88.67
2019-02-15T21:23:25.995Z,37.47
2019-02-15T21:25:55.693Z,36.77
2019-02-15T21:28:25.319Z,32.20
2019-02-15T21:30:54.869Z,28.60
2019-02-15T21:33:24.392Z,29.80
2019-02-15T21:35:53.944Z,32.40
2019-02-15T21:38:23.455Z,30.87
2019-02-15T21:40:52.950Z,31.27
2019-02-15T21:43:22.511Z,30.30
2019-02-15T21:45:52.053Z,34.93
2019-02-15T21:48:21.586Z,34.20
2019-02-15T21:50:51.112Z,32.83
2019-02-15T21:53:20.728Z,33.50
2019-02-15T21:55:50.336Z,32.30
2019-02-15T21:58:21.152Z,35.53
2019-02-15T22:00:50.684Z,32.67
2019-02-15T22:03:20.288Z,29.20
2019-02-15T22:05:49.824Z,30.80
2019-02-15T22:08:19.417Z,32.03
2019-02-15T22:10:48.953Z,32.80
2019-02-15T22:13:18.454Z,45.50
2019-02-15T22:15:47.976Z,42.40
2019-02-15T22:18:17.471Z,36.30
2019-02-15T22:20:47.042Z,35.90
2019-02-15T22:23:16.566Z,37.37
2019-02-15T22:25:46.300Z,35.50
2019-02-15T22:28:15.849Z,32.77
2019-02-15T22:30:45.379Z,29.63
2019-02-15T22:33:14.902Z,29.10
2019-02-15T22:35:44.419Z,29.80
2019-02-15T22:38:13.966Z,33.27
2019-02-15T22:40:44.937Z,26.13
2019-02-15T22:43:19.821Z,27.53
2019-02-15T22:45:49.440Z,25.37
2019-02-15T22:48:19.030Z,24.93
2019-02-15T22:50:48.765Z,27.87
2019-02-15T22:53:18.355Z,41.23
2019-02-15T22:55:47.884Z,26.07
2019-02-15T22:58:17.390Z,32.20
2019-02-15T23:01:21.421Z,28.67
2019-02-15T23:03:51.028Z,26.13
2019-02-15T23:06:20.646Z,29.27
2019-02-15T23:08:50.220Z,29.23
2019-02-15T23:11:19.717Z,28.70
2019-02-15T23:13:49.247Z,26.93
2019-02-15T23:16:18.882Z,29.43
2019-02-15T23:18:48.414Z,27.23
2019-02-15T23:21:18.041Z,28.47
2019-02-15T23:23:47.595Z,32.83
2019-02-15T23:26:17.206Z,30.50
2019-02-15T23:28:46.785Z,30.90
2019-02-15T23:31:16.433Z,34.40
2019-02-15T23:33:45.988Z,32.37
2019-02-15T23:36:15.601Z,34.70
2019-02-15T23:38:45.277Z,27.90
2019-02-15T23:41:14.915Z,30.03
2019-02-15T23:43:44.456Z,26.07
2019-02-15T23:46:14.069Z,26.67
2019-02-15T23:48:43.684Z,25.37
2019-02-15T23:51:13.519Z,27.40
2019-02-15T23:53:43.062Z,27.17
2019-02-15T23:56:12.598Z,24.87
2019-02-15T23:58:42.207Z,29.70
